East Mansfield, Massachusetts
Current Conditions -  °F | °C
As of 9:53 PM on Monday 22 Dec 2014 (Local Time) from KOWD Reporting Station
Few Clouds Few Clouds  
Wind Chill: 39°   Ceiling: Unl
Heat Index: 39°   Visibility: 10mi
Dew Point: 37°   Wind: 3mph
Humidity: 93%   Direction: 90°E
Pressure: 30.29"   Gusts: NA
Location:  42.02°N, 71.18°W
Report Text: KOWD 230253Z AUTO 09003KT 10SM FEW055 04/03 A3029 RMK AO2 SLP259 60000 T00390028 58008
Loading
Personal Weather Stations






























Interactive Weather Map New forecast layout! Learn more

10-Day Weather Forecast

Advertisements
Track Severe Weather on mobile